Time;durP1;ratioP1;P1;durP2;ratioP2;P2;SDS_P1;SDS_P2;PMS_P1;PMS_P2;Temp;Humidity;BMP_temperature;BMP_pressure;BME280_temperature;BME280_humidity;BME280_pressure;Samples;Min_cycle;Max_cycle;Signal;HPM_P1;HPM_P2
2023/03/15 00:01:36;;;;;;;11.93;8.07;;;;;;;;;;4972255;28;20031;-65
2023/03/15 00:04:04;;;;;;;9.32;7.75;;;;;;;;;;4969583;28;20031;-65
2023/03/15 00:06:33;;;;;;;10.32;7.55;;;;;;;;;;4969273;28;20041;-66
2023/03/15 00:09:00;;;;;;;10.10;8.70;;;;;;;;;;4971156;28;20383;-67
2023/03/15 00:11:31;;;;;;;13.02;8.80;;;;;;;;;;4971495;28;20042;-66
2023/03/15 00:13:57;;;;;;;11.18;8.38;;;;;;;;;;4968421;28;20035;-66
2023/03/15 00:16:26;;;;;;;12.45;9.90;;;;;;;;;;4970656;28;20034;-66
2023/03/15 00:18:53;;;;;;;12.65;10.00;;;;;;;;;;4969537;28;20038;-65
2023/03/15 00:21:19;;;;;;;11.77;8.63;;;;;;;;;;4970154;28;20035;-66
2023/03/15 00:23:45;;;;;;;17.42;9.90;;;;;;;;;;4970000;28;20039;-67
2023/03/15 00:26:11;;;;;;;14.52;9.55;;;;;;;;;;4970892;28;20057;-65
2023/03/15 00:28:37;;;;;;;14.93;9.38;;;;;;;;;;4969292;28;20031;-65
2023/03/15 00:31:12;;;;;;;12.75;9.45;;;;;;;;;;4968824;28;20045;-65
2023/03/15 00:33:37;;;;;;;14.70;9.05;;;;;;;;;;4970298;28;20030;-66
2023/03/15 00:36:05;;;;;;;12.32;9.48;;;;;;;;;;4970988;28;20054;-66
2023/03/15 00:38:32;;;;;;;13.50;10.25;;;;;;;;;;4967459;28;20035;-66
2023/03/15 00:41:13;;;;;;;14.88;8.90;;;;;;;;;;4968622;28;20138;-66
2023/03/15 00:43:39;;;;;;;15.75;10.07;;;;;;;;;;4970531;28;20043;-66
2023/03/15 00:46:05;;;;;;;16.17;9.32;;;;;;;;;;4965504;28;20041;-66
2023/03/15 00:48:32;;;;;;;17.65;11.05;;;;;;;;;;4968690;28;20406;-66
2023/03/15 00:51:13;;;;;;;18.88;12.23;;;;;;;;;;4969340;28;20037;-66
2023/03/15 00:53:42;;;;;;;14.43;8.98;;;;;;;;;;4984475;28;20045;-67
2023/03/15 00:56:13;;;;;;;15.35;10.23;;;;;;;;;;4967164;28;20038;-67
2023/03/15 00:58:40;;;;;;;17.98;12.32;;;;;;;;;;4968982;28;20031;-67
2023/03/15 01:01:14;;;;;;;16.95;11.60;;;;;;;;;;4969047;28;20477;-66
2023/03/15 01:03:41;;;;;;;16.08;9.18;;;;;;;;;;4970867;28;20058;-66
2023/03/15 01:06:09;;;;;;;21.65;12.10;;;;;;;;;;4973868;28;20110;-65
2023/03/15 01:08:34;;;;;;;17.90;9.68;;;;;;;;;;4968627;28;20130;-66
2023/03/15 01:11:05;;;;;;;17.65;10.57;;;;;;;;;;4972232;28;20042;-65
2023/03/15 01:13:30;;;;;;;17.83;8.95;;;;;;;;;;4973275;28;20137;-66
2023/03/15 01:15:56;;;;;;;18.35;10.70;;;;;;;;;;4969281;28;20117;-67
2023/03/15 01:18:22;;;;;;;18.88;10.60;;;;;;;;;;4967769;28;20055;-66
2023/03/15 01:20:47;;;;;;;16.98;9.73;;;;;;;;;;4969684;28;20109;-66
2023/03/15 01:23:13;;;;;;;15.10;8.85;;;;;;;;;;4968020;28;20516;-66
2023/03/15 01:25:38;;;;;;;20.63;9.95;;;;;;;;;;4970572;28;20561;-66
2023/03/15 01:28:04;;;;;;;18.38;9.13;;;;;;;;;;4971060;28;20031;-65
2023/03/15 01:30:29;;;;;;;10.32;7.50;;;;;;;;;;4968616;28;20703;-65
2023/03/15 01:32:55;;;;;;;16.25;9.35;;;;;;;;;;4966391;28;20050;-66
2023/03/15 01:35:21;;;;;;;17.50;8.10;;;;;;;;;;4969097;28;20081;-66
2023/03/15 01:37:50;;;;;;;23.75;10.25;;;;;;;;;;4984979;28;20097;-66
2023/03/15 01:40:17;;;;;;;16.55;9.07;;;;;;;;;;4965845;28;20034;-66
2023/03/15 01:43:03;;;;;;;14.35;7.88;;;;;;;;;;4966888;28;20073;-65
2023/03/15 01:46:07;;;;;;;14.95;7.85;;;;;;;;;;4969629;28;20045;-66
2023/03/15 01:48:45;;;;;;;;;;;;;;;;;;4962541;28;20042;-66
2023/03/15 01:51:25;;;;;;;12.20;7.32;;;;;;;;;;4967731;28;20337;-66
2023/03/15 01:54:14;;;;;;;15.88;8.13;;;;;;;;;;4966930;28;20054;-67
2023/03/15 01:56:46;;;;;;;13.68;7.07;;;;;;;;;;4969905;28;20050;-66
2023/03/15 01:59:20;;;;;;;9.23;4.80;;;;;;;;;;4967028;28;20117;-67
2023/03/15 02:01:47;;;;;;;7.40;5.40;;;;;;;;;;4966844;28;20754;-66
2023/03/15 02:04:23;;;;;;;9.43;5.28;;;;;;;;;;4967677;28;20517;-66
2023/03/15 02:06:50;;;;;;;8.63;5.43;;;;;;;;;;4970541;28;20042;-66
2023/03/15 02:09:17;;;;;;;11.77;6.43;;;;;;;;;;4967431;28;20526;-67
2023/03/15 02:11:44;;;;;;;11.13;5.38;;;;;;;;;;4966976;28;20506;-67
2023/03/15 02:14:13;;;;;;;12.75;5.70;;;;;;;;;;4967283;28;20027;-67
2023/03/15 02:16:43;;;;;;;6.18;4.78;;;;;;;;;;4968292;28;20034;-67
2023/03/15 02:19:25;;;;;;;9.35;5.63;;;;;;;;;;4966494;28;20051;-67
2023/03/15 02:22:00;;;;;;;5.50;4.97;;;;;;;;;;4966817;28;20035;-65
2023/03/15 02:24:55;;;;;;;8.65;5.10;;;;;;;;;;4968052;28;20030;-65
2023/03/15 02:27:29;;;;;;;8.35;5.30;;;;;;;;;;4969781;28;20044;-65
2023/03/15 02:29:55;;;;;;;8.57;5.22;;;;;;;;;;4982224;28;20376;-65
2023/03/15 02:32:21;;;;;;;6.50;5.18;;;;;;;;;;4968016;28;20070;-66
2023/03/15 02:34:48;;;;;;;8.60;6.10;;;;;;;;;;4984990;28;20561;-66
2023/03/15 02:37:14;;;;;;;5.80;4.97;;;;;;;;;;4980671;28;20531;-66
2023/03/15 02:39:39;;;;;;;7.43;4.57;;;;;;;;;;4968164;28;20058;-67
2023/03/15 02:42:05;;;;;;;5.38;4.50;;;;;;;;;;4964135;28;20032;-66
2023/03/15 02:44:33;;;;;;;6.88;4.60;;;;;;;;;;4964679;28;20557;-67
2023/03/15 02:47:04;;;;;;;7.28;4.78;;;;;;;;;;4966291;28;20098;-67
2023/03/15 02:49:34;;;;;;;11.63;5.18;;;;;;;;;;4951137;28;20041;-67
2023/03/15 02:52:00;;;;;;;9.88;5.05;;;;;;;;;;4968800;28;20566;-67
2023/03/15 02:54:25;;;;;;;7.88;4.63;;;;;;;;;;4965726;28;20173;-67
2023/03/15 02:56:52;;;;;;;7.95;5.18;;;;;;;;;;4982502;28;20721;-66
2023/03/15 02:59:18;;;;;;;8.45;5.55;;;;;;;;;;4966635;28;20049;-66
2023/03/15 03:01:44;;;;;;;9.20;5.47;;;;;;;;;;4967547;28;20030;-66
2023/03/15 03:04:11;;;;;;;10.55;4.78;;;;;;;;;;4966722;28;20058;-66
2023/03/15 03:06:37;;;;;;;6.10;4.30;;;;;;;;;;4967373;28;20118;-66
2023/03/15 03:09:04;;;;;;;4.57;4.10;;;;;;;;;;4964718;28;20066;-66
2023/03/15 03:11:30;;;;;;;5.18;4.43;;;;;;;;;;4967366;28;20762;-66
2023/03/15 03:13:56;;;;;;;10.10;4.85;;;;;;;;;;4966880;28;20061;-66
2023/03/15 03:16:22;;;;;;;6.03;4.38;;;;;;;;;;4969375;28;20395;-66
2023/03/15 03:18:48;;;;;;;8.15;3.88;;;;;;;;;;4965227;28;20150;-66
2023/03/15 03:21:14;;;;;;;8.35;4.28;;;;;;;;;;4966112;28;20121;-66
2023/03/15 03:23:40;;;;;;;5.97;3.90;;;;;;;;;;4966024;28;20738;-66
2023/03/15 03:26:15;;;;;;;5.50;3.90;;;;;;;;;;4965684;28;20058;-66
2023/03/15 03:28:46;;;;;;;6.45;4.43;;;;;;;;;;4966800;28;20418;-66
2023/03/15 03:31:17;;;;;;;5.55;4.38;;;;;;;;;;4964495;28;20035;-66
2023/03/15 03:33:42;;;;;;;10.57;4.50;;;;;;;;;;4970125;28;20046;-66
2023/03/15 03:36:08;;;;;;;4.40;4.00;;;;;;;;;;4971446;28;20054;-66
2023/03/15 03:38:33;;;;;;;7.88;4.25;;;;;;;;;;4968380;28;20640;-66
2023/03/15 03:41:01;;;;;;;6.72;3.78;;;;;;;;;;4957322;28;20445;-66
2023/03/15 03:43:30;;;;;;;9.25;4.10;;;;;;;;;;4969916;28;20517;-67
2023/03/15 03:45:55;;;;;;;7.95;3.95;;;;;;;;;;4971299;28;20038;-66
2023/03/15 03:48:21;;;;;;;6.13;4.10;;;;;;;;;;4969357;28;20431;-67
2023/03/15 03:50:47;;;;;;;3.67;3.38;;;;;;;;;;4971487;28;20031;-66
2023/03/15 03:53:12;;;;;;;8.77;4.03;;;;;;;;;;4975819;28;20065;-66
2023/03/15 03:55:38;;;;;;;7.40;4.70;;;;;;;;;;4972995;28;20039;-66
2023/03/15 03:58:04;;;;;;;8.98;4.47;;;;;;;;;;4967811;28;20081;-66
2023/03/15 04:00:37;;;;;;;8.13;4.15;;;;;;;;;;4967424;28;20081;-66
2023/03/15 04:03:04;;;;;;;10.85;4.20;;;;;;;;;;4970892;28;20078;-66
2023/03/15 04:05:34;;;;;;;4.90;4.10;;;;;;;;;;4958080;28;20046;-66
2023/03/15 04:07:59;;;;;;;5.10;3.90;;;;;;;;;;4961300;28;21832;-66
2023/03/15 04:10:28;;;;;;;6.60;4.03;;;;;;;;;;4986097;28;20070;-66
2023/03/15 04:12:55;;;;;;;9.32;4.22;;;;;;;;;;4969802;28;20072;-66
2023/03/15 04:15:22;;;;;;;9.45;4.70;;;;;;;;;;4973429;28;20186;-66
2023/03/15 04:17:54;;;;;;;6.82;4.10;;;;;;;;;;4969937;28;20526;-66
2023/03/15 04:20:26;;;;;;;7.20;4.47;;;;;;;;;;4963229;28;20039;-66
2023/03/15 04:22:53;;;;;;;8.60;4.25;;;;;;;;;;4958759;28;20050;-66
2023/03/15 04:25:27;;;;;;;10.45;4.43;;;;;;;;;;4968889;28;20038;-66
2023/03/15 04:28:11;;;;;;;7.70;4.70;;;;;;;;;;4967520;28;20506;-66
2023/03/15 04:30:43;;;;;;;13.55;5.55;;;;;;;;;;4967793;28;20049;-67
2023/03/15 04:33:27;;;;;;;10.57;5.28;;;;;;;;;;4969889;28;20062;-66
2023/03/15 04:36:01;;;;;;;8.52;4.38;;;;;;;;;;4968060;28;20070;-66
2023/03/15 04:39:03;;;;;;;9.25;4.38;;;;;;;;;;4969854;28;20118;-66
2023/03/15 04:41:49;;;;;;;9.13;4.47;;;;;;;;;;4975593;28;20138;-66
2023/03/15 04:44:33;;;;;;;6.90;4.90;;;;;;;;;;4970408;28;20109;-66
2023/03/15 04:47:08;;;;;;;6.13;4.78;;;;;;;;;;4983160;28;20050;-67
2023/03/15 04:49:42;;;;;;;7.88;4.78;;;;;;;;;;4968296;28;20121;-67
2023/03/15 04:52:27;;;;;;;10.30;4.60;;;;;;;;;;4969870;28;20565;-66
2023/03/15 04:54:58;;;;;;;8.48;5.70;;;;;;;;;;4969655;28;20570;-66
2023/03/15 04:58:02;;;;;;;6.30;4.72;;;;;;;;;;4924842;29;20122;-67
2023/03/15 05:01:03;;;;;;;9.45;5.38;;;;;;;;;;4925613;29;20042;-66
2023/03/15 05:03:52;;;;;;;7.72;4.90;;;;;;;;;;4924072;29;20901;-65
2023/03/15 05:06:46;;;;;;;10.82;4.95;;;;;;;;;;4926206;29;20048;-66
2023/03/15 05:09:36;;;;;;;6.40;5.05;;;;;;;;;;4923900;29;20123;-67
2023/03/15 05:12:21;;;;;;;7.30;4.50;;;;;;;;;;4920629;29;20044;-66
2023/03/15 05:15:06;;;;;;;14.73;5.22;;;;;;;;;;4925141;29;20471;-67
2023/03/15 05:17:53;;;;;;;9.77;5.70;;;;;;;;;;4928136;29;20047;-66
2023/03/15 05:20:45;;;;;;;13.55;5.57;;;;;;;;;;4926891;29;20059;-66
2023/03/15 05:23:33;;;;;;;9.32;5.32;;;;;;;;;;4921759;29;20047;-66
2023/03/15 05:26:17;;;;;;;10.35;6.13;;;;;;;;;;4928245;29;20043;-66
2023/03/15 05:28:55;;;;;;;8.45;4.55;;;;;;;;;;4946434;28;20055;-67
2023/03/15 05:31:35;;;;;;;8.77;5.97;;;;;;;;;;4970329;28;20043;-67
2023/03/15 05:34:23;;;;;;;12.43;6.50;;;;;;;;;;4971307;28;20043;-66
2023/03/15 05:37:04;;;;;;;9.07;5.70;;;;;;;;;;4970292;28;20684;-66
2023/03/15 05:39:48;;;;;;;7.80;6.03;;;;;;;;;;4963832;28;20113;-66
2023/03/15 05:42:29;;;;;;;9.10;5.90;;;;;;;;;;4965668;28;20518;-66
2023/03/15 05:45:11;;;;;;;7.68;6.25;;;;;;;;;;4971978;28;20880;-66
2023/03/15 05:48:08;;;;;;;8.15;6.03;;;;;;;;;;4969702;28;20893;-65
2023/03/15 05:50:51;;;;;;;11.38;5.90;;;;;;;;;;4965685;28;20027;-65
2023/03/15 05:53:25;;;;;;;9.18;5.60;;;;;;;;;;4967671;28;20053;-66
2023/03/15 05:56:29;;;;;;;7.30;6.15;;;;;;;;;;4995378;28;20034;-65
2023/03/15 05:59:15;;;;;;;13.23;7.10;;;;;;;;;;4992791;28;20041;-66
2023/03/15 06:02:07;;;;;;;9.82;6.60;;;;;;;;;;4972328;28;20082;-65
2023/03/15 06:04:44;;;;;;;11.20;5.88;;;;;;;;;;4981518;28;20050;-66
2023/03/15 06:07:14;;;;;;;11.20;6.20;;;;;;;;;;4996873;28;20062;-66
2023/03/15 06:09:40;;;;;;;18.60;5.72;;;;;;;;;;4995542;28;20038;-66
2023/03/15 06:12:05;;;;;;;7.85;5.95;;;;;;;;;;4998847;28;20542;-65
2023/03/15 06:14:31;;;;;;;9.45;5.90;;;;;;;;;;4981227;28;20555;-65
2023/03/15 06:17:02;;;;;;;9.90;6.25;;;;;;;;;;4993611;28;20057;-64
2023/03/15 06:19:29;;;;;;;7.90;5.35;;;;;;;;;;4972579;28;20069;-66
2023/03/15 06:21:55;;;;;;;10.43;6.80;;;;;;;;;;4990221;28;21409;-66
2023/03/15 06:24:36;;;;;;;9.88;6.38;;;;;;;;;;4974415;28;20200;-65
2023/03/15 06:27:02;;;;;;;8.40;6.43;;;;;;;;;;4984508;28;20290;-65
2023/03/15 06:29:28;;;;;;;8.35;6.55;;;;;;;;;;4966737;28;20410;-65
2023/03/15 06:31:56;;;;;;;9.30;6.32;;;;;;;;;;4967156;28;20035;-65
2023/03/15 06:34:23;;;;;;;11.82;5.68;;;;;;;;;;4982490;28;20054;-65
2023/03/15 06:36:51;;;;;;;13.65;6.35;;;;;;;;;;4967074;28;20034;-65
2023/03/15 06:39:17;;;;;;;8.73;6.72;;;;;;;;;;4967154;28;20121;-65
2023/03/15 06:41:42;;;;;;;11.02;6.03;;;;;;;;;;4966749;28;20193;-65
2023/03/15 06:44:14;;;;;;;13.60;6.90;;;;;;;;;;4965401;28;20042;-65
2023/03/15 06:46:40;;;;;;;12.43;6.90;;;;;;;;;;4966864;28;20177;-65
2023/03/15 06:49:06;;;;;;;12.23;6.47;;;;;;;;;;4966792;28;20121;-65
2023/03/15 06:51:31;;;;;;;10.63;5.93;;;;;;;;;;4966826;28;20038;-65
2023/03/15 06:53:57;;;;;;;12.30;7.00;;;;;;;;;;4964703;28;20478;-65
2023/03/15 06:56:23;;;;;;;8.90;6.25;;;;;;;;;;4983226;28;20282;-65
2023/03/15 06:58:48;;;;;;;11.20;6.43;;;;;;;;;;4968064;28;20035;-66
2023/03/15 07:01:14;;;;;;;10.35;5.90;;;;;;;;;;4966827;28;20022;-65
2023/03/15 07:03:41;;;;;;;7.68;5.78;;;;;;;;;;4967960;28;20134;-65
2023/03/15 07:06:07;;;;;;;5.38;4.90;;;;;;;;;;4967961;28;20222;-65
2023/03/15 07:08:32;;;;;;;13.10;6.22;;;;;;;;;;4966439;28;20035;-65
2023/03/15 07:10:58;;;;;;;7.95;5.68;;;;;;;;;;4968012;28;20182;-65
2023/03/15 07:13:23;;;;;;;8.65;5.88;;;;;;;;;;4966877;28;20062;-65
2023/03/15 07:15:53;;;;;;;10.25;6.43;;;;;;;;;;4967677;28;20809;-65
2023/03/15 07:18:19;;;;;;;12.82;7.30;;;;;;;;;;4966096;28;20050;-65
2023/03/15 07:20:44;;;;;;;7.18;5.85;;;;;;;;;;4968041;28;20034;-65
2023/03/15 07:23:10;;;;;;;8.48;6.13;;;;;;;;;;4967789;28;20034;-66
2023/03/15 07:25:35;;;;;;;13.93;6.50;;;;;;;;;;4967151;28;20121;-65
2023/03/15 07:28:01;;;;;;;6.68;5.85;;;;;;;;;;4967216;28;20043;-65
2023/03/15 07:30:27;;;;;;;7.28;5.53;;;;;;;;;;4967503;28;20026;-65
2023/03/15 07:32:53;;;;;;;6.03;5.53;;;;;;;;;;4967624;28;20181;-65
2023/03/15 07:35:18;;;;;;;7.85;6.88;;;;;;;;;;4966487;28;20058;-65
2023/03/15 07:37:44;;;;;;;8.23;5.10;;;;;;;;;;4967443;28;20478;-65
2023/03/15 07:40:14;;;;;;;7.53;5.70;;;;;;;;;;4967446;28;20057;-65
2023/03/15 07:42:41;;;;;;;10.63;6.82;;;;;;;;;;4965999;28;20431;-65
2023/03/15 07:45:08;;;;;;;10.70;7.40;;;;;;;;;;4966284;28;20043;-66
2023/03/15 07:47:34;;;;;;;7.88;6.57;;;;;;;;;;4967604;28;20038;-65
2023/03/15 07:49:59;;;;;;;8.15;7.40;;;;;;;;;;4967210;28;20050;-65
2023/03/15 07:52:25;;;;;;;7.50;6.82;;;;;;;;;;4966452;28;20043;-65
2023/03/15 07:54:50;;;;;;;6.90;6.40;;;;;;;;;;4967876;28;20414;-65
2023/03/15 07:57:16;;;;;;;8.40;7.53;;;;;;;;;;4967346;28;20058;-66
2023/03/15 07:59:41;;;;;;;10.88;7.13;;;;;;;;;;4967396;28;20060;-65
2023/03/15 08:02:11;;;;;;;11.85;7.55;;;;;;;;;;4966309;28;20410;-66
2023/03/15 08:04:36;;;;;;;7.38;6.70;;;;;;;;;;4967141;28;20398;-65
2023/03/15 08:07:02;;;;;;;10.43;6.65;;;;;;;;;;4967219;28;20049;-66
2023/03/15 08:09:27;;;;;;;10.05;6.43;;;;;;;;;;4967185;28;20061;-66
2023/03/15 08:11:53;;;;;;;8.93;6.95;;;;;;;;;;4966036;28;20549;-65
2023/03/15 08:14:18;;;;;;;7.40;6.63;;;;;;;;;;4967741;28;20479;-66
2023/03/15 08:16:44;;;;;;;7.65;6.85;;;;;;;;;;4967296;28;20039;-65
2023/03/15 08:19:09;;;;;;;7.03;6.53;;;;;;;;;;4969935;28;20042;-66
2023/03/15 08:21:35;;;;;;;7.22;6.63;;;;;;;;;;4969557;28;20042;-66
2023/03/15 08:24:01;;;;;;;8.57;7.13;;;;;;;;;;4970922;28;20027;-67
2023/03/15 08:26:26;;;;;;;11.43;7.10;;;;;;;;;;4970507;28;20442;-66
2023/03/15 08:28:52;;;;;;;7.55;6.93;;;;;;;;;;4969581;28;20031;-67
2023/03/15 08:31:17;;;;;;;7.07;6.50;;;;;;;;;;4971046;28;20034;-66
2023/03/15 08:33:43;;;;;;;7.53;6.75;;;;;;;;;;4970584;28;20049;-67
2023/03/15 08:36:08;;;;;;;7.90;7.20;;;;;;;;;;4966622;28;20035;-66
2023/03/15 08:38:34;;;;;;;7.85;7.10;;;;;;;;;;4970479;28;20117;-67
2023/03/15 08:41:00;;;;;;;7.65;6.95;;;;;;;;;;4970636;28;20039;-66
2023/03/15 08:43:26;;;;;;;7.63;6.93;;;;;;;;;;4969533;28;20109;-66
2023/03/15 08:45:51;;;;;;;12.30;6.90;;;;;;;;;;4970650;28;20034;-66
2023/03/15 08:48:17;;;;;;;7.70;6.72;;;;;;;;;;4970515;28;20041;-66
2023/03/15 08:50:42;;;;;;;7.78;6.60;;;;;;;;;;4970522;28;20046;-65
2023/03/15 08:53:09;;;;;;;7.70;6.35;;;;;;;;;;4969448;28;20372;-66
2023/03/15 08:55:36;;;;;;;8.32;6.13;;;;;;;;;;4970089;28;20046;-66
2023/03/15 08:58:03;;;;;;;7.28;6.40;;;;;;;;;;4970116;28;20033;-66
2023/03/15 09:00:29;;;;;;;10.60;6.95;;;;;;;;;;4970554;28;20035;-66
2023/03/15 09:02:55;;;;;;;9.27;6.75;;;;;;;;;;4968836;28;20050;-67
2023/03/15 09:05:22;;;;;;;7.03;6.30;;;;;;;;;;4970361;28;20045;-67
2023/03/15 09:07:51;;;;;;;12.25;6.32;;;;;;;;;;4969886;28;20030;-66
2023/03/15 09:10:18;;;;;;;7.38;6.50;;;;;;;;;;4969951;28;20470;-67
2023/03/15 09:12:45;;;;;;;7.00;6.03;;;;;;;;;;4968743;28;20113;-66
2023/03/15 09:15:11;;;;;;;7.05;6.50;;;;;;;;;;4970180;28;20069;-65
2023/03/15 09:17:40;;;;;;;6.90;6.28;;;;;;;;;;4970236;28;20039;-65
2023/03/15 09:20:11;;;;;;;7.80;6.17;;;;;;;;;;4968449;28;20685;-65
2023/03/15 09:22:37;;;;;;;9.82;6.80;;;;;;;;;;4969721;28;20289;-66
2023/03/15 09:25:03;;;;;;;7.55;6.68;;;;;;;;;;4969811;28;20039;-66
2023/03/15 09:27:30;;;;;;;7.43;6.82;;;;;;;;;;4968503;28;20101;-65
2023/03/15 09:29:56;;;;;;;7.43;6.70;;;;;;;;;;4968202;28;20023;-66
2023/03/15 09:32:21;;;;;;;7.75;7.00;;;;;;;;;;4969653;28;20045;-66
2023/03/15 09:34:47;;;;;;;11.23;7.25;;;;;;;;;;4969786;28;20451;-66
2023/03/15 09:37:12;;;;;;;16.92;6.90;;;;;;;;;;4969626;28;20398;-66
2023/03/15 09:39:38;;;;;;;7.03;6.43;;;;;;;;;;4968086;28;20073;-66
2023/03/15 09:42:15;;;;;;;7.30;6.65;;;;;;;;;;4969831;28;20054;-66
2023/03/15 09:44:46;;;;;;;7.53;6.43;;;;;;;;;;4968878;28;20566;-66
2023/03/15 09:47:36;;;;;;;7.05;6.50;;;;;;;;;;4968279;28;20126;-66
2023/03/15 09:50:17;;;;;;;7.85;6.80;;;;;;;;;;4969220;28;20094;-66
2023/03/15 09:52:50;;;;;;;7.70;6.32;;;;;;;;;;4969798;28;20045;-66
2023/03/15 09:55:20;;;;;;;6.90;6.30;;;;;;;;;;4968126;28;20058;-66
2023/03/15 09:57:58;;;;;;;6.63;6.07;;;;;;;;;;4969066;28;20129;-66
2023/03/15 10:00:45;;;;;;;6.70;6.10;;;;;;;;;;4969497;28;20078;-66
2023/03/15 10:03:25;;;;;;;9.15;5.90;;;;;;;;;;4966162;28;20027;-66
2023/03/15 10:05:56;;;;;;;6.18;5.60;;;;;;;;;;4967704;28;20406;-66
2023/03/15 10:08:23;;;;;;;5.47;5.18;;;;;;;;;;4974809;28;20118;-66
2023/03/15 10:11:04;;;;;;;5.60;5.30;;;;;;;;;;4973430;28;20033;-67
2023/03/15 10:13:45;;;;;;;6.07;5.68;;;;;;;;;;4975919;28;20090;-66
2023/03/15 10:16:29;;;;;;;9.57;5.78;;;;;;;;;;4965498;28;20384;-66
2023/03/15 10:19:22;;;;;;;6.03;5.63;;;;;;;;;;4967321;28;20035;-66
2023/03/15 10:22:00;;;;;;;7.65;5.30;;;;;;;;;;4958582;28;20050;-67
2023/03/15 10:25:01;;;;;;;5.77;5.27;;;;;;;;;;4967438;28;20422;-66
2023/03/15 10:27:38;;;;;;;5.75;5.30;;;;;;;;;;4946484;29;20128;-66
2023/03/15 10:30:25;;;;;;;6.50;5.80;;;;;;;;;;4942268;29;20059;-66
2023/03/15 10:33:21;;;;;;;6.18;5.70;;;;;;;;;;4946071;29;20130;-66
2023/03/15 10:35:47;;;;;;;5.85;5.28;;;;;;;;;;4941070;28;20106;-67
2023/03/15 10:38:17;;;;;;;6.15;5.60;;;;;;;;;;4945809;29;21010;-67
2023/03/15 10:40:46;;;;;;;5.93;5.40;;;;;;;;;;4945667;28;20047;-66
2023/03/15 10:43:22;;;;;;;6.03;5.47;;;;;;;;;;4943776;29;20055;-66
2023/03/15 10:46:02;;;;;;;5.50;4.97;;;;;;;;;;4943877;28;20353;-66
2023/03/15 10:48:30;;;;;;;7.72;5.57;;;;;;;;;;4944110;29;20491;-66
2023/03/15 10:50:59;;;;;;;7.00;6.35;;;;;;;;;;4945312;29;20122;-65
2023/03/15 10:53:25;;;;;;;6.45;6.05;;;;;;;;;;4944602;28;20053;-65
2023/03/15 10:56:04;;;;;;;6.10;5.60;;;;;;;;;;4945586;28;20083;-67
2023/03/15 10:58:40;;;;;;;5.80;5.38;;;;;;;;;;4944565;29;20047;-66
2023/03/15 11:01:12;;;;;;;6.18;5.70;;;;;;;;;;4944993;29;20113;-64
2023/03/15 11:03:40;;;;;;;5.68;5.00;;;;;;;;;;4959713;28;20045;-66
2023/03/15 11:06:26;;;;;;;6.10;5.50;;;;;;;;;;4968373;28;20085;-64
2023/03/15 11:08:51;;;;;;;7.32;5.90;;;;;;;;;;4968310;28;20038;-64
2023/03/15 11:11:17;;;;;;;7.10;5.40;;;;;;;;;;4968960;28;20430;-64
2023/03/15 11:13:57;;;;;;;6.50;5.90;;;;;;;;;;4966342;28;20441;-65
2023/03/15 11:16:22;;;;;;;6.60;6.10;;;;;;;;;;4967119;28;20030;-64
2023/03/15 11:18:54;;;;;;;6.55;6.05;;;;;;;;;;4968145;28;20406;-64
2023/03/15 11:21:25;;;;;;;6.10;5.50;;;;;;;;;;4966801;28;20045;-65
2023/03/15 11:23:52;;;;;;;5.95;5.40;;;;;;;;;;4968155;28;20061;-64
2023/03/15 11:26:21;;;;;;;5.18;4.78;;;;;;;;;;4968174;28;20046;-64
2023/03/15 11:28:54;;;;;;;5.60;5.15;;;;;;;;;;4968123;28;20035;-64
2023/03/15 11:31:21;;;;;;;6.13;5.47;;;;;;;;;;4967258;28;20041;-64
2023/03/15 11:34:02;;;;;;;5.03;4.72;;;;;;;;;;4967785;28;20042;-64
2023/03/15 11:36:32;;;;;;;5.78;5.20;;;;;;;;;;4967123;28;20038;-64
2023/03/15 11:39:01;;;;;;;5.63;5.13;;;;;;;;;;4966684;28;20699;-64
2023/03/15 11:41:35;;;;;;;5.47;5.07;;;;;;;;;;4967446;28;20031;-65
2023/03/15 11:44:04;;;;;;;5.57;5.10;;;;;;;;;;4982629;28;20030;-64
2023/03/15 11:46:43;;;;;;;;;;;;;;;;;;4966589;28;20125;-64
2023/03/15 11:49:30;;;;;;;5.95;5.45;;;;;;;;;;4967488;28;19914;-64
2023/03/15 11:51:56;;;;;;;8.90;5.53;;;;;;;;;;4966554;28;20101;-65
2023/03/15 11:54:25;;;;;;;6.57;5.40;;;;;;;;;;4971064;28;20051;-65
2023/03/15 11:56:53;;;;;;;7.35;5.35;;;;;;;;;;4969855;28;20042;-65
2023/03/15 11:59:39;;;;;;;6.55;5.00;;;;;;;;;;4971558;28;20043;-64
2023/03/15 12:02:12;;;;;;;6.20;5.70;;;;;;;;;;4971619;28;20043;-64
2023/03/15 12:04:49;;;;;;;5.80;5.40;;;;;;;;;;4971405;28;20042;-67
2023/03/15 12:07:18;;;;;;;5.70;5.25;;;;;;;;;;4969024;28;20121;-67
2023/03/15 12:09:55;;;;;;;6.68;5.32;;;;;;;;;;4972166;28;20043;-66
2023/03/15 12:12:24;;;;;;;5.75;5.10;;;;;;;;;;4986415;28;20089;-66
2023/03/15 12:15:17;;;;;;;6.90;5.33;;;;;;;;;;4973165;28;20073;-64
2023/03/15 12:17:56;;;;;;;5.70;5.25;;;;;;;;;;4970186;28;20290;-64
2023/03/15 12:20:36;;;;;;;6.13;5.53;;;;;;;;;;4971272;28;20373;-64
2023/03/15 12:23:11;;;;;;;5.80;5.30;;;;;;;;;;4970061;28;20470;-67
2023/03/15 12:25:58;;;;;;;8.80;5.78;;;;;;;;;;4971322;28;20450;-64
2023/03/15 12:28:33;;;;;;;5.40;4.90;;;;;;;;;;4963791;28;20077;-64
2023/03/15 12:31:01;;;;;;;5.45;5.00;;;;;;;;;;4968979;28;20486;-64
2023/03/15 12:33:30;;;;;;;5.15;4.78;;;;;;;;;;4971035;28;20034;-64
2023/03/15 12:36:09;;;;;;;5.85;5.10;;;;;;;;;;4971255;28;20043;-63
2023/03/15 12:38:40;;;;;;;6.35;4.82;;;;;;;;;;4969752;28;20047;-65
2023/03/15 12:41:08;;;;;;;5.35;4.90;;;;;;;;;;4971099;28;20054;-65
2023/03/15 12:43:35;;;;;;;7.30;5.03;;;;;;;;;;4970969;28;20046;-64
2023/03/15 12:46:01;;;;;;;5.45;4.50;;;;;;;;;;4971398;28;20053;-65
2023/03/15 12:48:28;;;;;;;5.40;4.15;;;;;;;;;;4969317;28;20066;-65
2023/03/15 12:50:55;;;;;;;5.50;4.45;;;;;;;;;;4970139;28;20498;-65
2023/03/15 12:53:21;;;;;;;6.25;4.13;;;;;;;;;;4970754;28;21306;-65
2023/03/15 12:55:48;;;;;;;5.35;4.20;;;;;;;;;;4969490;28;20050;-65
2023/03/15 12:58:16;;;;;;;4.82;4.30;;;;;;;;;;4970222;28;20039;-65
2023/03/15 13:00:43;;;;;;;7.28;4.28;;;;;;;;;;4970665;28;20101;-65
2023/03/15 13:03:22;;;;;;;5.63;4.45;;;;;;;;;;4969871;28;20130;-65
2023/03/15 13:05:59;;;;;;;4.22;3.78;;;;;;;;;;4973838;28;20042;-65
2023/03/15 13:08:52;;;;;;;4.75;3.88;;;;;;;;;;4970551;28;20114;-65
2023/03/15 13:11:46;;;;;;;6.15;4.13;;;;;;;;;;4968490;28;20326;-64
2023/03/15 13:14:36;;;;;;;6.93;4.50;;;;;;;;;;4967744;28;20062;-65
2023/03/15 13:17:15;;;;;;;8.27;5.00;;;;;;;;;;4970014;28;20070;-64
2023/03/15 13:19:44;;;;;;;5.20;4.80;;;;;;;;;;4968931;28;20035;-65
2023/03/15 13:22:47;;;;;;;5.25;4.88;;;;;;;;;;4966202;28;20305;-65
2023/03/15 13:25:13;;;;;;;5.03;4.65;;;;;;;;;;4966273;28;20151;-65
2023/03/15 13:27:58;;;;;;;7.47;5.10;;;;;;;;;;4968045;28;20532;-65
2023/03/15 13:30:37;;;;;;;9.85;5.38;;;;;;;;;;4968198;28;20035;-65
2023/03/15 13:33:07;;;;;;;6.22;5.47;;;;;;;;;;4967330;28;20537;-65
2023/03/15 13:35:47;;;;;;;6.72;5.00;;;;;;;;;;4968363;28;20129;-65
2023/03/15 13:38:28;;;;;;;6.75;5.20;;;;;;;;;;4965214;28;20107;-65
2023/03/15 13:40:55;;;;;;;7.93;5.13;;;;;;;;;;4966491;28;20039;-65
2023/03/15 13:43:28;;;;;;;6.55;5.82;;;;;;;;;;4968406;28;20062;-65
2023/03/15 13:45:56;;;;;;;5.70;5.20;;;;;;;;;;4968890;28;20123;-65
2023/03/15 13:48:22;;;;;;;5.70;5.20;;;;;;;;;;4968163;28;20039;-65
2023/03/15 13:50:51;;;;;;;8.13;5.00;;;;;;;;;;4966542;28;20529;-65
2023/03/15 13:53:23;;;;;;;7.15;6.35;;;;;;;;;;4967965;28;20030;-65
2023/03/15 13:55:52;;;;;;;5.93;5.30;;;;;;;;;;4967913;28;20035;-67
2023/03/15 13:58:19;;;;;;;9.93;6.27;;;;;;;;;;4965704;28;20027;-65
2023/03/15 14:00:46;;;;;;;4.80;4.50;;;;;;;;;;4968147;28;20401;-65
2023/03/15 14:03:15;;;;;;;7.93;5.20;;;;;;;;;;4976358;28;20038;-65
2023/03/15 14:05:44;;;;;;;5.30;4.90;;;;;;;;;;4980833;28;20050;-65
2023/03/15 14:08:22;;;;;;;7.28;5.47;;;;;;;;;;4975115;28;20528;-65
2023/03/15 14:11:01;;;;;;;7.85;5.22;;;;;;;;;;4967507;28;20062;-65
2023/03/15 14:13:33;;;;;;;7.22;5.43;;;;;;;;;;4967997;28;20034;-65
2023/03/15 14:16:02;;;;;;;6.75;5.82;;;;;;;;;;4965392;28;20074;-65
2023/03/15 14:18:50;;;;;;;;;;;;;;;;;;4967017;28;20281;-65
2023/03/15 14:21:19;;;;;;;8.60;5.53;;;;;;;;;;4967314;28;20224;-65
2023/03/15 14:23:47;;;;;;;8.68;5.53;;;;;;;;;;4967081;28;20121;-65
2023/03/15 14:26:18;;;;;;;6.22;5.53;;;;;;;;;;4965283;28;20043;-65
2023/03/15 14:29:20;;;;;;;6.68;6.00;;;;;;;;;;4966075;28;20082;-65
2023/03/15 14:31:49;;;;;;;6.25;5.57;;;;;;;;;;4965669;28;20190;-66
2023/03/15 14:34:22;;;;;;;8.43;5.55;;;;;;;;;;4965971;28;20456;-64
2023/03/15 14:36:48;;;;;;;6.35;5.35;;;;;;;;;;4965893;28;20426;-65
2023/03/15 14:39:23;;;;;;;5.63;5.13;;;;;;;;;;4966831;28;20034;-65
2023/03/15 14:41:49;;;;;;;6.03;5.20;;;;;;;;;;4966719;28;20034;-65
2023/03/15 14:44:14;;;;;;;7.85;5.07;;;;;;;;;;4965329;28;20039;-66
2023/03/15 14:46:40;;;;;;;7.60;5.13;;;;;;;;;;4966776;28;20578;-65
2023/03/15 14:49:06;;;;;;;5.50;4.97;;;;;;;;;;4966664;28;20041;-66
2023/03/15 14:51:32;;;;;;;6.45;5.20;;;;;;;;;;4965216;28;20045;-65
2023/03/15 14:53:58;;;;;;;8.07;5.65;;;;;;;;;;4966621;28;20093;-65
2023/03/15 14:56:24;;;;;;;6.05;5.20;;;;;;;;;;4966684;28;20494;-67
2023/03/15 14:58:52;;;;;;;6.45;5.25;;;;;;;;;;4966371;28;20046;-64
2023/03/15 15:01:22;;;;;;;7.13;5.15;;;;;;;;;;4965434;28;20057;-65
2023/03/15 15:03:57;;;;;;;6.28;5.47;;;;;;;;;;4967408;28;20035;-65
2023/03/15 15:06:24;;;;;;;8.75;6.15;;;;;;;;;;4966369;28;20030;-66
2023/03/15 15:08:54;;;;;;;5.60;4.95;;;;;;;;;;4965142;28;20038;-66